createdAt,value
2023-04-30T00:01:14.393Z,97519.34
2023-04-30T00:03:41.569Z,97519.94
2023-04-30T00:06:08.619Z,97516.41
2023-04-30T00:08:35.797Z,97525.44
2023-04-30T00:11:02.746Z,97516.34
2023-04-30T00:13:29.761Z,97512.47
2023-04-30T00:15:56.909Z,97512.56
2023-04-30T00:18:23.964Z,97523.88
2023-04-30T00:20:52.588Z,97515.66
2023-04-30T00:23:19.666Z,97517.56
2023-04-30T00:25:46.669Z,97519.72
2023-04-30T00:28:13.721Z,97516.81
2023-04-30T00:30:40.748Z,97519.94
2023-04-30T00:33:07.936Z,97515.28
2023-04-30T00:35:35.509Z,97520.78
2023-04-30T00:38:02.556Z,97514.50
2023-04-30T00:40:29.876Z,97513.66
2023-04-30T00:42:57.049Z,97513.75
2023-04-30T00:45:24.140Z,97503.03
2023-04-30T00:47:51.340Z,97505.16
2023-04-30T00:50:18.974Z,97513.03
2023-04-30T00:52:46.225Z,97510.81
2023-04-30T00:55:13.298Z,97509.84
2023-04-30T00:57:43.475Z,97510.00
2023-04-30T01:00:11.281Z,97510.44
2023-04-30T01:02:38.892Z,97511.75
2023-04-30T01:05:07.538Z,97509.16
2023-04-30T01:07:46.425Z,97508.03
2023-04-30T01:10:14.753Z,97507.22
2023-04-30T01:12:56.634Z,97505.22
2023-04-30T01:15:33.702Z,97502.31
2023-04-30T01:18:10.949Z,97504.16
2023-04-30T01:20:44.912Z,97503.78
2023-04-30T01:23:30.925Z,97502.34
2023-04-30T01:26:49.012Z,97508.88
2023-04-30T01:29:23.549Z,97505.88
2023-04-30T01:31:51.131Z,97506.97
2023-04-30T01:34:18.359Z,97513.28
2023-04-30T01:37:04.027Z,97505.81
2023-04-30T01:40:09.994Z,97499.22
2023-04-30T01:43:02.228Z,97504.63
2023-04-30T01:45:41.426Z,97491.56
2023-04-30T01:48:48.035Z,97498.94
2023-04-30T01:51:29.857Z,97495.13
2023-04-30T01:54:09.293Z,97499.78
2023-04-30T01:56:50.224Z,97491.19
2023-04-30T01:59:18.161Z,97499.09
2023-04-30T02:01:45.265Z,97503.28
2023-04-30T02:04:12.266Z,97486.47
2023-04-30T02:06:39.523Z,97491.59
2023-04-30T02:09:07.166Z,97499.16
2023-04-30T02:11:34.223Z,97495.88
2023-04-30T02:14:01.232Z,97496.34
2023-04-30T02:16:28.247Z,97490.78
2023-04-30T02:18:55.371Z,97490.78
2023-04-30T02:21:22.528Z,97489.56
2023-04-30T02:23:49.738Z,97495.53
2023-04-30T02:26:16.827Z,97486.28
2023-04-30T02:28:43.948Z,97490.00
2023-04-30T02:31:11.370Z,97482.09
2023-04-30T02:33:38.456Z,97486.34
2023-04-30T02:36:05.673Z,97482.47
2023-04-30T02:38:32.744Z,97488.78
2023-04-30T02:40:59.789Z,97484.34
2023-04-30T02:43:26.848Z,97482.19
2023-04-30T02:45:53.856Z,97474.22
2023-04-30T02:48:21.013Z,97481.59
2023-04-30T02:50:48.014Z,97480.81
2023-04-30T02:53:15.103Z,97481.22
2023-04-30T02:55:42.129Z,97483.91
2023-04-30T02:58:09.530Z,97487.16
2023-04-30T03:00:36.600Z,97488.44
2023-04-30T03:03:04.012Z,97487.38
2023-04-30T03:05:31.322Z,97490.56
2023-04-30T03:07:58.294Z,97485.78
2023-04-30T03:10:25.588Z,97478.81
2023-04-30T03:12:53.952Z,97480.97
2023-04-30T03:15:21.133Z,97487.66
2023-04-30T03:17:48.267Z,97481.22
2023-04-30T03:20:15.516Z,97480.75
2023-04-30T03:22:42.482Z,97477.06
2023-04-30T03:25:11.029Z,97481.63
2023-04-30T03:27:38.102Z,97488.34
2023-04-30T03:30:06.095Z,97491.69
2023-04-30T03:32:33.462Z,97500.31
2023-04-30T03:35:00.665Z,97493.25
2023-04-30T03:37:27.670Z,97504.69
2023-04-30T03:39:54.924Z,97490.31
2023-04-30T03:42:22.337Z,97499.06
2023-04-30T03:44:49.459Z,97498.81
2023-04-30T03:47:16.778Z,97502.19
2023-04-30T03:49:43.820Z,97505.19
2023-04-30T03:52:11.384Z,97497.44
2023-04-30T03:54:38.502Z,97500.88
2023-04-30T03:57:07.910Z,97504.22
2023-04-30T03:59:35.092Z,97507.13
2023-04-30T04:02:02.353Z,97505.13
2023-04-30T04:04:30.717Z,97509.47
2023-04-30T04:06:58.701Z,97515.00
2023-04-30T04:09:25.898Z,97509.63
2023-04-30T04:11:52.921Z,97511.91
2023-04-30T04:14:20.660Z,97516.63
2023-04-30T04:16:47.693Z,97509.25
2023-04-30T04:19:14.706Z,97518.38
2023-04-30T04:21:41.824Z,97517.69
2023-04-30T04:24:14.678Z,97518.53
2023-04-30T04:26:41.975Z,97516.47
2023-04-30T04:29:12.324Z,97517.97
2023-04-30T04:31:42.391Z,97523.88
2023-04-30T04:34:11.090Z,97522.81
2023-04-30T04:36:38.173Z,97516.56
2023-04-30T04:39:05.219Z,97518.59
2023-04-30T04:41:33.658Z,97521.88
2023-04-30T04:44:02.060Z,97521.84
2023-04-30T04:46:33.064Z,97517.53
2023-04-30T04:49:01.265Z,97520.59
2023-04-30T04:51:28.332Z,97522.09
2023-04-30T04:53:55.383Z,97522.78
2023-04-30T04:56:22.471Z,97517.19
2023-04-30T04:58:49.449Z,97517.66
2023-04-30T05:01:16.629Z,97517.59
2023-04-30T05:03:46.577Z,97521.22
2023-04-30T05:06:13.760Z,97525.41
2023-04-30T05:08:42.380Z,97530.97
2023-04-30T05:11:09.686Z,97533.28
2023-04-30T05:13:36.685Z,97532.06
2023-04-30T05:16:04.031Z,97532.44
2023-04-30T05:18:31.125Z,97534.81
2023-04-30T05:20:58.440Z,97535.16
2023-04-30T05:23:25.802Z,97533.22
2023-04-30T05:25:53.350Z,97532.13
2023-04-30T05:28:20.454Z,97543.19
2023-04-30T05:30:47.565Z,97534.88
2023-04-30T05:33:14.614Z,97534.03
2023-04-30T05:35:42.109Z,97536.34
2023-04-30T05:38:09.275Z,97539.81
2023-04-30T05:40:36.216Z,97538.59
2023-04-30T05:43:03.308Z,97546.66
2023-04-30T05:45:30.325Z,97541.84
2023-04-30T05:47:57.412Z,97542.88
2023-04-30T05:50:24.415Z,97540.91
2023-04-30T05:52:51.454Z,97530.63
2023-04-30T05:55:18.656Z,97537.22
2023-04-30T05:57:45.702Z,97538.72
2023-04-30T06:00:13.692Z,97537.72
2023-04-30T06:02:41.366Z,97533.66
2023-04-30T06:05:09.102Z,97537.63
2023-04-30T06:07:36.418Z,97537.63
2023-04-30T06:10:03.756Z,97535.66
2023-04-30T06:12:31.470Z,97541.56
2023-04-30T06:14:58.948Z,97541.03
2023-04-30T06:17:25.984Z,97545.84
2023-04-30T06:19:53.306Z,97550.13
2023-04-30T06:22:20.508Z,97553.41
2023-04-30T06:24:47.454Z,97551.56
2023-04-30T06:27:14.471Z,97551.03
2023-04-30T06:29:41.426Z,97549.53
2023-04-30T06:32:08.787Z,97554.94
2023-04-30T06:34:36.576Z,97549.06
2023-04-30T06:37:03.713Z,97552.44
2023-04-30T06:39:30.951Z,97549.59
2023-04-30T06:41:57.974Z,97555.09
2023-04-30T06:44:28.034Z,97552.03
2023-04-30T06:46:55.224Z,97552.81
2023-04-30T06:49:22.185Z,97548.84
2023-04-30T06:51:49.174Z,97551.34
2023-04-30T06:54:16.496Z,97552.34
2023-04-30T06:56:44.840Z,97552.50
2023-04-30T06:59:12.425Z,97551.09
2023-04-30T07:01:39.527Z,97559.59
2023-04-30T07:04:06.741Z,97560.19
2023-04-30T07:06:34.183Z,97558.81
2023-04-30T07:09:02.428Z,97557.63
2023-04-30T07:11:29.634Z,97554.31
2023-04-30T07:13:57.036Z,97552.38
2023-04-30T07:16:26.567Z,97560.47
2023-04-30T07:18:53.627Z,97561.00
2023-04-30T07:21:20.689Z,97557.81
2023-04-30T07:23:48.835Z,97559.06
2023-04-30T07:26:16.206Z,97565.50
2023-04-30T07:28:43.328Z,97567.31
2023-04-30T07:31:10.732Z,97564.22
2023-04-30T07:33:37.841Z,97575.75
2023-04-30T07:36:05.141Z,97568.31
2023-04-30T07:38:33.378Z,97571.34
2023-04-30T07:41:01.873Z,97564.81
2023-04-30T07:43:30.595Z,97574.47
2023-04-30T07:45:59.510Z,97565.28
2023-04-30T07:48:26.661Z,97562.31
2023-04-30T07:50:54.027Z,97559.41
2023-04-30T07:53:21.013Z,97562.88
2023-04-30T07:55:47.957Z,97558.97
2023-04-30T07:58:15.068Z,97564.38
2023-04-30T08:00:42.107Z,97560.97
2023-04-30T08:03:09.302Z,97560.19
2023-04-30T08:05:36.447Z,97556.97
2023-04-30T08:08:03.707Z,97565.50
2023-04-30T08:10:30.876Z,97563.94
2023-04-30T08:12:57.967Z,97562.53
2023-04-30T08:15:25.288Z,97553.31
2023-04-30T08:17:52.598Z,97557.22
2023-04-30T08:20:19.770Z,97559.72
2023-04-30T08:22:46.993Z,97557.16
2023-04-30T08:25:14.376Z,97567.00
2023-04-30T08:27:41.519Z,97555.47
2023-04-30T08:30:08.900Z,97561.78
2023-04-30T08:32:36.620Z,97551.38
2023-04-30T08:35:06.643Z,97556.13
2023-04-30T08:37:34.070Z,97552.50
2023-04-30T08:40:01.246Z,97547.13
2023-04-30T08:42:36.869Z,97548.53
2023-04-30T08:45:04.932Z,97540.53
2023-04-30T08:47:32.263Z,97551.31
2023-04-30T08:49:59.358Z,97543.19
2023-04-30T08:52:28.846Z,97547.47
2023-04-30T08:54:59.045Z,97548.13
2023-04-30T08:57:26.631Z,97535.75
2023-04-30T08:59:54.877Z,97541.16
2023-04-30T09:02:22.213Z,97543.44
2023-04-30T09:04:49.950Z,97542.28
2023-04-30T09:07:18.760Z,97545.31
2023-04-30T09:09:45.963Z,97543.09
2023-04-30T09:12:21.092Z,97536.88
2023-04-30T09:15:09.124Z,97536.63
2023-04-30T09:17:36.252Z,97536.50
2023-04-30T09:20:14.201Z,97542.56
2023-04-30T09:22:42.578Z,97528.09
2023-04-30T09:25:11.548Z,97527.50
2023-04-30T09:27:38.593Z,97531.69
2023-04-30T09:30:06.444Z,97523.22
2023-04-30T09:32:33.532Z,97526.25
2023-04-30T09:35:00.659Z,97522.03
2023-04-30T09:37:40.313Z,97521.75
2023-04-30T09:40:08.336Z,97512.97
2023-04-30T09:42:36.065Z,97516.47
2023-04-30T10:17:28.621Z,97513.44
2023-04-30T10:20:02.053Z,97507.25
2023-04-30T10:22:30.921Z,97504.97
2023-04-30T10:24:58.090Z,97513.38
2023-04-30T10:27:25.149Z,97514.47
2023-04-30T10:29:52.485Z,97516.81
2023-04-30T10:32:21.688Z,97519.19
2023-04-30T10:35:13.612Z,97517.84
2023-04-30T10:37:49.653Z,97518.97
2023-04-30T10:40:16.784Z,97507.72
2023-04-30T10:42:49.142Z,97512.84
2023-04-30T10:45:17.342Z,97518.56
2023-04-30T10:47:48.264Z,97516.34
2023-04-30T10:50:15.378Z,97518.94
2023-04-30T10:52:44.419Z,97518.78
2023-04-30T10:55:11.715Z,97507.72
2023-04-30T10:57:43.329Z,97509.06
2023-04-30T11:00:10.588Z,97503.59
2023-04-30T11:02:45.409Z,97512.63
2023-04-30T11:05:19.673Z,97509.97
2023-04-30T11:07:59.521Z,97514.72
2023-04-30T11:10:28.747Z,97508.81
2023-04-30T11:12:56.200Z,97509.34
2023-04-30T11:15:32.067Z,97495.91
2023-04-30T11:17:59.796Z,97503.28
2023-04-30T11:20:27.225Z,97503.66
2023-04-30T11:23:19.634Z,97499.50
2023-04-30T11:25:55.385Z,97509.22
2023-04-30T11:28:26.526Z,97498.56
2023-04-30T11:30:54.582Z,97503.56
2023-04-30T11:33:23.593Z,97500.59
2023-04-30T11:35:54.220Z,97505.31
2023-04-30T11:38:25.769Z,97501.38
2023-04-30T11:40:54.299Z,97498.03
2023-04-30T11:43:32.038Z,97487.88
2023-04-30T11:46:06.564Z,97486.16
2023-04-30T11:48:38.681Z,97497.22
2023-04-30T11:51:27.213Z,97491.34
2023-04-30T11:53:54.327Z,97493.22
2023-04-30T11:56:26.249Z,97486.56
2023-04-30T11:58:55.914Z,97486.09
2023-04-30T12:01:27.873Z,97481.78
2023-04-30T12:03:56.624Z,97484.94
2023-04-30T12:06:28.957Z,97479.59
2023-04-30T12:09:11.796Z,97481.16
2023-04-30T12:11:39.499Z,97485.03
2023-04-30T12:14:12.931Z,97491.59
2023-04-30T12:16:49.519Z,97478.53
2023-04-30T12:19:27.099Z,97477.41
2023-04-30T12:21:55.432Z,97488.13
2023-04-30T12:24:23.909Z,97490.91
2023-04-30T12:26:53.890Z,97481.44
2023-04-30T12:29:25.119Z,97477.91
2023-04-30T12:31:52.687Z,97486.88
2023-04-30T12:34:19.844Z,97480.28
2023-04-30T12:36:46.864Z,97488.81
2023-04-30T12:39:18.361Z,97481.63
2023-04-30T12:41:47.191Z,97477.09
2023-04-30T12:44:19.057Z,97477.41
2023-04-30T12:46:50.574Z,97470.03
2023-04-30T12:49:25.752Z,97474.09
2023-04-30T12:51:58.680Z,97480.22
2023-04-30T12:54:30.308Z,97473.94
2023-04-30T12:57:05.437Z,97477.47
2023-04-30T12:59:37.445Z,97474.56
2023-04-30T13:02:12.018Z,97474.84
2023-04-30T13:04:40.938Z,97470.50
2023-04-30T13:07:08.044Z,97473.09
2023-04-30T13:09:37.121Z,97466.44
2023-04-30T13:12:04.511Z,97465.59
2023-04-30T13:14:32.574Z,97455.38
2023-04-30T13:16:59.998Z,97457.13
2023-04-30T13:19:27.051Z,97462.97
2023-04-30T13:21:54.042Z,97463.16
2023-04-30T13:24:21.121Z,97460.50
2023-04-30T13:26:48.360Z,97457.00
2023-04-30T13:29:15.345Z,97454.72
2023-04-30T13:31:42.639Z,97456.31
2023-04-30T13:34:10.157Z,97460.19
2023-04-30T13:36:37.332Z,97448.47
2023-04-30T13:39:05.010Z,97455.13
2023-04-30T13:41:32.166Z,97453.50
2023-04-30T13:44:00.314Z,97460.63
2023-04-30T13:46:27.409Z,97451.28
2023-04-30T13:48:54.404Z,97457.41
2023-04-30T13:51:21.482Z,97472.78
2023-04-30T13:53:48.559Z,97466.66
2023-04-30T13:56:15.844Z,97459.06
2023-04-30T13:58:43.050Z,97475.22
2023-04-30T14:01:10.704Z,97469.09
2023-04-30T14:03:37.966Z,97469.09
2023-04-30T14:06:06.085Z,97469.50
2023-04-30T14:08:33.987Z,97468.88
2023-04-30T14:11:01.720Z,97471.53
2023-04-30T14:13:28.683Z,97473.16
2023-04-30T14:15:56.272Z,97487.94
2023-04-30T14:18:23.606Z,97470.50
2023-04-30T14:20:51.196Z,97475.63
2023-04-30T14:23:18.319Z,97478.69
2023-04-30T14:25:45.503Z,97474.19
2023-04-30T14:28:12.515Z,97472.34
2023-04-30T14:30:39.598Z,97477.06
2023-04-30T14:33:07.008Z,97463.34
2023-04-30T14:35:34.120Z,97469.09
2023-04-30T14:38:01.184Z,97472.75
2023-04-30T14:40:28.484Z,97473.78
2023-04-30T14:42:55.558Z,97478.88
2023-04-30T14:45:22.627Z,97480.94
2023-04-30T14:47:49.656Z,97486.25
2023-04-30T14:50:16.861Z,97482.38
2023-04-30T14:52:43.848Z,97481.16
2023-04-30T14:55:10.869Z,97479.53
2023-04-30T14:57:37.937Z,97490.34
2023-04-30T15:00:07.013Z,97493.22
2023-04-30T15:02:34.142Z,97493.00
2023-04-30T15:05:01.179Z,97488.72
2023-04-30T15:07:28.297Z,97497.50
2023-04-30T15:09:55.671Z,97492.19
2023-04-30T15:12:23.100Z,97494.63
2023-04-30T15:14:50.730Z,97495.66
2023-04-30T15:17:17.895Z,97498.50
2023-04-30T15:19:45.168Z,97496.06
2023-04-30T15:22:12.183Z,97501.56
2023-04-30T15:24:39.190Z,97509.13
2023-04-30T15:27:06.189Z,97507.53
2023-04-30T15:29:33.451Z,97514.03
2023-04-30T15:32:00.654Z,97508.31
2023-04-30T15:34:27.716Z,97507.09
2023-04-30T15:36:58.965Z,97509.34
2023-04-30T15:39:26.999Z,97506.22
2023-04-30T15:41:54.245Z,97510.63
2023-04-30T15:44:21.593Z,97511.66
2023-04-30T15:46:48.966Z,97510.59
2023-04-30T15:49:16.062Z,97514.72
2023-04-30T15:51:43.506Z,97522.78
2023-04-30T15:54:11.507Z,97520.97
2023-04-30T15:56:38.757Z,97518.88
2023-04-30T15:59:06.489Z,97521.88
2023-04-30T16:01:33.727Z,97521.69
2023-04-30T16:04:01.483Z,97520.50
2023-04-30T16:06:29.832Z,97524.88
2023-04-30T16:08:56.965Z,97526.50
2023-04-30T16:11:24.455Z,97526.63
2023-04-30T16:13:52.144Z,97533.72
2023-04-30T16:16:19.331Z,97534.63
2023-04-30T16:18:46.417Z,97529.81
2023-04-30T16:21:13.508Z,97534.09
2023-04-30T16:23:40.530Z,97534.34
2023-04-30T16:26:07.520Z,97535.22
2023-04-30T16:28:35.578Z,97540.56
2023-04-30T16:31:02.599Z,97550.19
2023-04-30T16:33:29.755Z,97549.75
2023-04-30T16:35:56.838Z,97549.72
2023-04-30T16:38:24.078Z,97551.69
2023-04-30T16:40:51.243Z,97561.00
2023-04-30T16:43:18.320Z,97551.00
2023-04-30T16:45:48.644Z,97561.78
2023-04-30T16:48:17.655Z,97563.63
2023-04-30T16:50:44.889Z,97563.41
2023-04-30T16:53:12.096Z,97560.22
2023-04-30T16:55:39.051Z,97567.59
2023-04-30T16:58:06.297Z,97567.94
2023-04-30T17:00:33.735Z,97574.03
2023-04-30T17:03:00.865Z,97571.22
2023-04-30T17:05:27.964Z,97584.25
2023-04-30T17:07:55.306Z,97585.56
2023-04-30T17:10:22.497Z,97582.72
2023-04-30T17:12:49.519Z,97582.44
2023-04-30T17:15:18.494Z,97572.34
2023-04-30T17:17:45.874Z,97581.19
2023-04-30T17:20:13.067Z,97582.44
2023-04-30T17:22:40.300Z,97590.34
2023-04-30T17:25:08.255Z,97584.41
2023-04-30T17:27:35.960Z,97586.75
2023-04-30T17:30:04.552Z,97583.38
2023-04-30T17:32:31.565Z,97586.03
2023-04-30T17:34:59.064Z,97581.94
2023-04-30T17:37:26.474Z,97593.50
2023-04-30T17:39:53.527Z,97593.22
2023-04-30T17:42:20.784Z,97595.22
2023-04-30T17:44:48.878Z,97599.63
2023-04-30T17:47:16.373Z,97600.00
2023-04-30T17:49:43.373Z,97603.44
2023-04-30T17:52:10.600Z,97611.34
2023-04-30T17:54:37.691Z,97611.34
2023-04-30T17:57:04.733Z,97611.97
2023-04-30T17:59:32.187Z,97612.50
2023-04-30T18:01:59.805Z,97612.16
2023-04-30T18:04:26.951Z,97616.28
2023-04-30T18:06:54.190Z,97621.88
2023-04-30T18:09:21.458Z,97627.50
2023-04-30T18:11:48.553Z,97631.69
2023-04-30T18:14:15.790Z,97638.72
2023-04-30T18:16:42.807Z,97639.81
2023-04-30T18:19:09.954Z,97638.16
2023-04-30T18:21:37.007Z,97643.97
2023-04-30T18:24:04.759Z,97644.56
2023-04-30T18:26:31.977Z,97648.47
2023-04-30T18:28:58.993Z,97656.06
2023-04-30T18:31:26.126Z,97641.97
2023-04-30T18:33:53.145Z,97644.44
2023-04-30T18:36:20.354Z,97646.38
2023-04-30T18:38:47.469Z,97646.09
2023-04-30T18:41:14.541Z,97654.38
2023-04-30T18:43:42.956Z,97653.19
2023-04-30T18:46:10.148Z,97653.84
2023-04-30T18:48:37.207Z,97661.31
2023-04-30T18:51:04.651Z,97660.72
2023-04-30T18:53:31.777Z,97660.84
2023-04-30T18:55:58.791Z,97665.47
2023-04-30T18:58:25.902Z,97664.94
2023-04-30T19:00:57.914Z,97657.50
2023-04-30T19:03:25.283Z,97653.63
2023-04-30T19:05:57.677Z,97658.78
2023-04-30T19:08:24.980Z,97662.22
2023-04-30T19:10:53.327Z,97665.00
2023-04-30T19:13:20.371Z,97663.00
2023-04-30T19:15:48.926Z,97663.03
2023-04-30T19:18:16.656Z,97660.50
2023-04-30T19:20:43.672Z,97676.19
2023-04-30T19:23:10.844Z,97678.16
2023-04-30T19:25:39.180Z,97673.66
2023-04-30T19:28:06.218Z,97665.78
2023-04-30T19:30:34.459Z,97675.38
2023-04-30T19:33:01.925Z,97666.25
2023-04-30T19:35:29.070Z,97670.66
2023-04-30T19:37:56.053Z,97661.56
2023-04-30T19:40:23.144Z,97668.84
2023-04-30T19:42:50.220Z,97665.25
2023-04-30T19:45:17.328Z,97670.09
2023-04-30T19:47:44.459Z,97663.16
2023-04-30T19:50:11.912Z,97676.59
2023-04-30T19:52:39.000Z,97678.50
2023-04-30T19:55:06.659Z,97676.84
2023-04-30T19:57:35.142Z,97670.97
2023-04-30T20:00:04.567Z,97681.69
2023-04-30T20:02:33.849Z,97688.94
2023-04-30T20:05:01.206Z,97689.50
2023-04-30T20:07:28.446Z,97687.03
2023-04-30T20:09:55.717Z,97690.06
2023-04-30T20:12:22.985Z,97695.28
2023-04-30T20:14:50.502Z,97694.59
2023-04-30T20:17:17.811Z,97696.31
2023-04-30T20:19:44.858Z,97696.03
2023-04-30T20:22:13.324Z,97699.00
2023-04-30T20:24:44.853Z,97695.41
2023-04-30T20:27:14.898Z,97692.19
2023-04-30T20:29:42.090Z,97695.84
2023-04-30T20:32:09.427Z,97703.22
2023-04-30T20:34:40.524Z,97700.38
2023-04-30T20:37:07.468Z,97702.84
2023-04-30T20:39:34.429Z,97699.03
2023-04-30T20:42:01.684Z,97703.53
2023-04-30T20:44:28.810Z,97713.84
2023-04-30T20:46:56.098Z,97712.31
2023-04-30T20:49:23.216Z,97716.50
2023-04-30T20:51:50.235Z,97718.00
2023-04-30T20:54:17.563Z,97722.72
2023-04-30T20:56:46.905Z,97725.47
2023-04-30T20:59:14.710Z,97737.16
2023-04-30T21:01:41.825Z,97731.53
2023-04-30T21:04:09.680Z,97733.84
2023-04-30T21:06:37.262Z,97734.69
2023-04-30T21:09:04.797Z,97737.16
2023-04-30T21:11:33.903Z,97735.09
2023-04-30T21:14:00.969Z,97731.25
2023-04-30T21:16:28.509Z,97731.50
2023-04-30T21:18:55.750Z,97729.03
2023-04-30T21:21:23.796Z,97727.13
2023-04-30T21:23:50.785Z,97723.53
2023-04-30T21:26:18.116Z,97735.25
2023-04-30T21:28:45.712Z,97728.09
2023-04-30T21:31:13.114Z,97728.63
2023-04-30T21:33:40.773Z,97728.28
2023-04-30T21:36:08.005Z,97728.09
2023-04-30T21:38:35.083Z,97727.91
2023-04-30T21:41:02.123Z,97721.09
2023-04-30T21:43:29.358Z,97730.97
2023-04-30T21:46:05.418Z,97737.13
2023-04-30T21:48:32.547Z,97739.47
2023-04-30T21:50:59.764Z,97738.44
2023-04-30T21:53:27.193Z,97743.13
2023-04-30T21:55:54.133Z,97740.22
2023-04-30T21:58:21.237Z,97741.66
2023-04-30T22:00:49.071Z,97741.56
2023-04-30T22:03:16.676Z,97742.75
2023-04-30T22:05:44.264Z,97745.34
2023-04-30T22:08:11.341Z,97739.78
2023-04-30T22:10:38.277Z,97742.44
2023-04-30T22:13:05.533Z,97738.13
2023-04-30T22:15:47.090Z,97752.47
2023-04-30T22:18:15.022Z,97738.59
2023-04-30T22:20:42.063Z,97748.78
2023-04-30T22:23:09.057Z,97741.84
2023-04-30T22:25:36.101Z,97744.16
2023-04-30T22:28:03.288Z,97748.88
2023-04-30T22:30:30.236Z,97746.50
2023-04-30T22:32:57.598Z,97748.72
2023-04-30T22:35:25.883Z,97745.00
2023-04-30T22:37:52.909Z,97748.81
2023-04-30T22:40:20.692Z,97747.63
2023-04-30T22:42:48.206Z,97744.94
2023-04-30T22:45:15.387Z,97750.72
2023-04-30T22:47:42.646Z,97747.28
2023-04-30T22:50:10.219Z,97746.16
2023-04-30T22:52:37.471Z,97734.91
2023-04-30T22:55:05.667Z,97741.38
2023-04-30T22:57:32.821Z,97749.00
2023-04-30T22:59:59.834Z,97747.16
2023-04-30T23:02:26.870Z,97746.09
2023-04-30T23:04:53.976Z,97745.13
2023-04-30T23:07:21.244Z,97752.22
2023-04-30T23:09:48.249Z,97751.56
2023-04-30T23:12:15.335Z,97748.78
2023-04-30T23:14:42.617Z,97744.09
2023-04-30T23:17:09.697Z,97749.31
2023-04-30T23:19:36.749Z,97744.50
2023-04-30T23:22:03.788Z,97753.88
2023-04-30T23:24:35.360Z,97745.72
2023-04-30T23:27:03.400Z,97738.28
2023-04-30T23:29:30.779Z,97740.03
2023-04-30T23:31:58.121Z,97744.34
2023-04-30T23:34:25.233Z,97751.19
2023-04-30T23:36:52.282Z,97745.81
2023-04-30T23:39:19.445Z,97752.97
2023-04-30T23:41:46.569Z,97752.13
2023-04-30T23:44:13.615Z,97746.41
2023-04-30T23:46:41.653Z,97748.78
2023-04-30T23:49:10.119Z,97747.19
2023-04-30T23:51:37.284Z,97745.13
2023-04-30T23:54:05.939Z,97748.47
2023-04-30T23:56:36.668Z,97752.91
2023-04-30T23:59:03.629Z,97741.00
